Time;durP1;ratioP1;P1;durP2;ratioP2;P2;SDS_P1;SDS_P2;PMS_P1;PMS_P2;Temp;Humidity;BMP_temperature;BMP_pressure;BME280_temperature;BME280_humidity;BME280_pressure;Samples;Min_cycle;Max_cycle;Signal;HPM_P1;HPM_P2
2023/08/03 00:00:06;;;;;;;;;;;;;;;20.71;81.95;94739.19;5134131;28;1223;-59
2023/08/03 00:02:36;;;;;;;;;;;;;;;20.60;82.86;94749.81;5134430;28;962;-59
2023/08/03 00:05:03;;;;;;;;;;;;;;;20.43;83.47;94746.91;5134510;28;1270;-59
2023/08/03 00:07:29;;;;;;;;;;;;;;;20.43;83.37;94746.91;5134347;28;1029;-58
2023/08/03 00:09:55;;;;;;;;;;;;;;;20.43;83.76;94741.47;5134170;28;1043;-59
2023/08/03 00:12:22;;;;;;;;;;;;;;;20.45;83.99;94739.34;5115812;28;1072;-59
2023/08/03 00:14:51;;;;;;;;;;;;;;;20.48;83.33;94738.03;5134399;28;1040;-58
2023/08/03 00:17:17;;;;;;;;;;;;;;;20.53;83.31;94743.59;5134028;28;1995;-59
2023/08/03 00:19:43;;;;;;;;;;;;;;;20.59;83.07;94745.38;5134109;28;1043;-58
2023/08/03 00:22:09;;;;;;;;;;;;;;;20.62;83.52;94741.41;5133951;28;992;-59
2023/08/03 00:24:36;;;;;;;;;;;;;;;20.60;83.16;94746.22;5134310;28;983;-59
2023/08/03 00:27:02;;;;;;;;;;;;;;;20.70;82.46;94735.66;5134256;28;936;-58
2023/08/03 00:29:28;;;;;;;;;;;;;;;20.54;83.23;94741.72;5124546;28;1173;-59
2023/08/03 00:31:54;;;;;;;;;;;;;;;20.50;83.94;94746.78;5125292;28;2497;-59
2023/08/03 00:34:20;;;;;;;;;;;;;;;20.42;84.33;94744.41;5133896;28;985;-58
2023/08/03 00:36:46;;;;;;;;;;;;;;;20.16;85.51;94751.88;5115682;28;950;-58
2023/08/03 00:39:12;;;;;;;;;;;;;;;20.19;85.15;94756.03;5134007;28;1910;-58
2023/08/03 00:41:38;;;;;;;;;;;;;;;19.98;86.21;94755.47;5134168;28;1288;-59
2023/08/03 00:44:04;;;;;;;;;;;;;;;19.84;86.92;94749.41;5134171;27;965;-59
2023/08/03 00:46:30;;;;;;;;;;;;;;;19.99;86.47;94740.00;5137981;27;1128;-59
2023/08/03 00:48:55;;;;;;;;;;;;;;;20.04;85.88;94751.84;5137623;27;1063;-59
2023/08/03 00:51:21;;;;;;;;;;;;;;;20.25;84.52;94745.06;5137582;27;1056;-59
2023/08/03 00:53:47;;;;;;;;;;;;;;;20.42;83.56;94745.22;5137863;27;1030;-59
2023/08/03 00:56:13;;;;;;;;;;;;;;;20.35;84.02;94749.09;5137444;27;1107;-59
2023/08/03 00:58:39;;;;;;;;;;;;;;;20.13;85.34;94754.22;5123493;27;2554;-59
2023/08/03 01:01:06;;;;;;;;;;;;;;;20.08;85.83;94758.44;5117001;28;964;-59
2023/08/03 01:03:32;;;;;;;;;;;;;;;20.11;85.48;94764.47;5116900;28;1005;-59
2023/08/03 01:05:58;;;;;;;;;;;;;;;20.12;85.47;94763.44;5116808;28;993;-59
2023/08/03 01:08:25;;;;;;;;;;;;;;;20.02;86.03;94762.09;5116956;28;982;-59
2023/08/03 01:10:52;;;;;;;;;;;;;;;20.12;85.77;94760.72;5116771;28;1270;-59
2023/08/03 01:13:18;;;;;;;;;;;;;;;20.04;85.98;94757.25;5116774;28;1017;-59
2023/08/03 01:15:44;;;;;;;;;;;;;;;19.91;86.08;94762.88;5116601;28;1036;-59
2023/08/03 01:18:10;;;;;;;;;;;;;;;19.61;87.89;94752.75;5098361;28;1987;-59
2023/08/03 01:20:37;;;;;;;;;;;;;;;19.58;88.11;94755.94;5116532;28;980;-59
2023/08/03 01:23:06;;;;;;;;;;;;;;;19.69;87.79;94752.47;5116511;28;1893;-59
2023/08/03 01:25:33;;;;;;;;;;;;;;;19.79;87.01;94751.13;5116335;28;1032;-59
2023/08/03 01:27:59;;;;;;;;;;;;;;;19.82;87.10;94751.50;5116671;28;980;-59
2023/08/03 01:30:25;;;;;;;;;;;;;;;19.86;86.52;94760.00;5133915;27;1173;-59
2023/08/03 01:32:51;;;;;;;;;;;;;;;19.74;86.94;94761.84;5136803;27;1075;-59
2023/08/03 01:35:18;;;;;;;;;;;;;;;19.59;87.87;94751.34;5136863;27;981;-58
2023/08/03 01:37:44;;;;;;;;;;;;;;;19.68;87.36;94760.84;5136594;27;2012;-58
2023/08/03 01:40:13;;;;;;;;;;;;;;;19.81;86.74;94759.88;5136668;27;1017;-59
2023/08/03 01:42:39;;;;;;;;;;;;;;;19.91;85.95;94759.34;5136704;27;1087;-59
2023/08/03 01:45:06;;;;;;;;;;;;;;;19.92;85.80;94764.53;5136591;27;1188;-59
2023/08/03 01:47:32;;;;;;;;;;;;;;;19.80;86.38;94763.63;5136447;27;1048;-59
2023/08/03 01:49:58;;;;;;;;;;;;;;;19.47;87.63;94764.84;5136491;27;1021;-59
2023/08/03 01:52:24;;;;;;;;;;;;;;;19.37;88.63;94759.09;5136454;27;1763;-59
2023/08/03 01:54:50;;;;;;;;;;;;;;;19.30;88.97;94765.41;5136729;27;963;-59
2023/08/03 01:57:17;;;;;;;;;;;;;;;19.32;89.11;94762.50;5136309;27;1905;-59
2023/08/03 01:59:43;;;;;;;;;;;;;;;19.44;88.38;94771.50;5114542;28;1120;-59
2023/08/03 02:02:09;;;;;;;;;;;;;;;19.75;86.75;94771.63;5115740;28;1094;-58
2023/08/03 02:04:35;;;;;;;;;;;;;;;19.72;86.95;94770.19;5115674;28;928;-59
2023/08/03 02:07:09;;;;;;;;;;;;;;;19.43;88.08;94763.63;5114454;28;1106;-59
2023/08/03 02:09:35;;;;;;;;;;;;;;;19.27;89.22;94765.88;5115562;28;1534;-59
2023/08/03 02:12:01;;;;;;;;;;;;;;;19.23;89.53;94764.66;5114363;28;1055;-59
2023/08/03 02:14:27;;;;;;;;;;;;;;;19.34;88.90;94764.97;5115443;28;1056;-59
2023/08/03 02:16:53;;;;;;;;;;;;;;;19.45;88.47;94766.94;5115409;28;1123;-59
2023/08/03 02:19:19;;;;;;;;;;;;;;;19.36;88.69;94760.97;5115238;28;1910;-59
2023/08/03 02:21:45;;;;;;;;;;;;;;;19.25;89.44;94765.25;5115347;28;1111;-59
2023/08/03 02:24:11;;;;;;;;;;;;;;;19.17;89.54;94759.31;5115491;28;975;-58
2023/08/03 02:26:37;;;;;;;;;;;;;;;19.44;88.15;94767.97;5115234;28;1083;-59
2023/08/03 02:29:03;;;;;;;;;;;;;;;19.58;86.98;94768.66;5115237;28;1153;-59
2023/08/03 02:31:28;;;;;;;;;;;;;;;19.58;87.13;94766.78;5115133;28;1034;-59
2023/08/03 02:33:54;;;;;;;;;;;;;;;19.46;87.84;94763.16;5115067;28;1022;-58
2023/08/03 02:36:20;;;;;;;;;;;;;;;19.40;88.48;94770.31;5114942;28;1099;-59
2023/08/03 02:38:46;;;;;;;;;;;;;;;19.21;88.99;94764.06;5115137;28;1905;-59
2023/08/03 02:41:12;;;;;;;;;;;;;;;19.15;89.40;94770.38;5113950;28;1583;-60
2023/08/03 02:43:38;;;;;;;;;;;;;;;19.22;88.96;94765.72;5114877;28;1032;-59
2023/08/03 02:46:04;;;;;;;;;;;;;;;19.35;88.27;94774.75;5114868;28;1052;-59
2023/08/03 02:48:30;;;;;;;;;;;;;;;19.26;88.51;94777.75;5124006;27;2829;-59
2023/08/03 02:50:56;;;;;;;;;;;;;;;19.26;88.71;94775.06;5135619;27;998;-59
2023/08/03 02:53:22;;;;;;;;;;;;;;;19.16;88.74;94779.31;5115775;27;1409;-59
2023/08/03 02:55:49;;;;;;;;;;;;;;;19.08;89.34;94783.16;5093394;28;1052;-58
2023/08/03 02:58:15;;;;;;;;;;;;;;;19.09;89.18;94785.66;5096350;28;1902;-59
2023/08/03 03:00:41;;;;;;;;;;;;;;;19.00;89.65;94783.44;5114660;28;977;-59
2023/08/03 03:03:07;;;;;;;;;;;;;;;18.91;90.02;94780.19;5114485;28;1032;-60
2023/08/03 03:05:33;;;;;;;;;;;;;;;18.95;90.15;94785.97;5114656;28;954;-58
2023/08/03 03:07:59;;;;;;;;;;;;;;;19.15;89.07;94785.81;5126654;27;2430;-61
2023/08/03 03:10:25;;;;;;;;;;;;;;;19.17;89.00;94789.94;5135031;27;1025;-60
2023/08/03 03:12:50;;;;;;;;;;;;;;;19.11;89.22;94796.25;5135005;27;953;-60
2023/08/03 03:15:16;;;;;;;;;;;;;;;19.04;89.25;94800.91;5134906;27;1038;-60
2023/08/03 03:17:42;;;;;;;;;;;;;;;19.04;89.19;94800.91;5134699;27;1918;-60
2023/08/03 03:20:09;;;;;;;;;;;;;;;18.98;90.09;94809.94;5135039;27;1029;-58
2023/08/03 03:22:35;;;;;;;;;;;;;;;19.09;89.18;94812.75;5134938;27;1192;-59
2023/08/03 03:25:04;;;;;;;;;;;;;;;18.97;89.47;94814.53;5134947;27;1023;-58
2023/08/03 03:27:30;;;;;;;;;;;;;;;18.94;90.03;94809.53;5134868;27;1036;-59
2023/08/03 03:29:56;;;;;;;;;;;;;;;18.91;90.03;94807.25;5134654;27;1165;-59
2023/08/03 03:32:22;;;;;;;;;;;;;;;18.83;90.67;94816.50;5134543;27;1040;-59
2023/08/03 03:34:48;;;;;;;;;;;;;;;18.81;90.94;94815.88;5134783;27;1039;-58
2023/08/03 03:37:14;;;;;;;;;;;;;;;18.81;91.00;94809.66;5134497;27;1011;-58
2023/08/03 03:39:40;;;;;;;;;;;;;;;18.84;90.66;94801.09;5134638;27;2004;-58
2023/08/03 03:42:06;;;;;;;;;;;;;;;19.01;89.31;94804.03;5134760;27;1024;-59
2023/08/03 03:44:34;;;;;;;;;;;;;;;18.96;90.40;94803.91;5134682;27;925;-60
2023/08/03 03:47:01;;;;;;;;;;;;;;;18.69;91.46;94810.31;5134447;27;946;-60
2023/08/03 03:49:27;;;;;;;;;;;;;;;18.96;90.13;94810.16;5134641;27;1016;-61
2023/08/03 03:51:53;;;;;;;;;;;;;;;19.24;88.55;94801.56;5134622;27;1056;-58
2023/08/03 03:54:19;;;;;;;;;;;;;;;19.34;87.97;94808.34;5134429;27;969;-59
2023/08/03 03:56:45;;;;;;;;;;;;;;;19.25;89.29;94803.19;5134451;27;961;-59
2023/08/03 03:59:11;;;;;;;;;;;;;;;19.20;89.84;94802.22;5123948;28;1996;-59
2023/08/03 04:01:37;;;;;;;;;;;;;;;19.23;89.64;94808.00;5113908;28;973;-59
2023/08/03 04:04:03;;;;;;;;;;;;;;;19.66;86.92;94809.88;5113966;28;970;-59
2023/08/03 04:06:29;;;;;;;;;;;;;;;19.68;86.88;94812.34;5113610;28;897;-59
2023/08/03 04:08:55;;;;;;;;;;;;;;;19.63;88.01;94815.72;5113990;28;1059;-59
2023/08/03 04:11:21;;;;;;;;;;;;;;;19.73;88.27;94819.84;5113774;28;970;-59
2023/08/03 04:13:47;;;;;;;;;;;;;;;19.55;88.99;94828.78;5113721;28;1028;-59
2023/08/03 04:16:13;;;;;;;;;;;;;;;19.65;88.94;94821.78;5113565;28;1042;-60
2023/08/03 04:18:39;;;;;;;;;;;;;;;19.74;88.89;94829.66;5113464;28;1988;-61
2023/08/03 04:21:05;;;;;;;;;;;;;;;19.85;88.53;94828.88;5117500;28;1011;-61
2023/08/03 04:23:31;;;;;;;;;;;;;;;20.00;87.96;94829.31;5117732;28;1011;-61
2023/08/03 04:25:57;;;;;;;;;;;;;;;20.02;88.40;94823.69;5117669;28;1044;-60
2023/08/03 04:28:23;;;;;;;;;;;;;;;20.15;88.51;94826.22;5117326;28;1165;-61
2023/08/03 04:30:49;;;;;;;;;;;;;;;20.18;89.25;94838.50;5097072;28;989;-60
2023/08/03 04:33:15;;;;;;;;;;;;;;;20.17;89.69;94834.97;5096900;28;1049;-60
2023/08/03 04:35:40;;;;;;;;;;;;;;;20.45;87.51;94844.38;5078941;28;1112;-60
2023/08/03 04:38:06;;;;;;;;;;;;;;;20.66;87.69;94832.25;5096992;28;1991;-60
2023/08/03 04:40:34;;;;;;;;;;;;;;;20.89;87.55;94839.63;5096972;28;1029;-61
2023/08/03 04:43:00;;;;;;;;;;;;;;;20.97;87.64;94843.88;5096832;28;1163;-62
2023/08/03 04:45:26;;;;;;;;;;;;;;;21.11;86.59;94847.22;5096650;28;1032;-60
2023/08/03 04:47:52;;;;;;;;;;;;;;;21.32;84.18;94848.53;5096974;28;1007;-61
2023/08/03 04:50:20;;;;;;;;;;;;;;;21.54;83.26;94852.34;5096895;28;1060;-60
2023/08/03 04:52:46;;;;;;;;;;;;;;;21.58;82.61;94853.53;5096674;28;1028;-59
2023/08/03 04:55:12;;;;;;;;;;;;;;;21.63;81.35;94853.66;5096663;28;1045;-59
2023/08/03 04:57:38;;;;;;;;;;;;;;;21.75;81.55;94855.53;5096576;28;1913;-61
2023/08/03 05:00:05;;;;;;;;;;;;;;;21.95;80.66;94856.00;5092390;28;1109;-61
2023/08/03 05:02:31;;;;;;;;;;;;;;;22.10;79.69;94865.53;5096435;28;1033;-58
2023/08/03 05:04:56;;;;;;;;;;;;;;;22.06;79.96;94861.63;5096423;28;1084;-59
2023/08/03 05:07:23;;;;;;;;;;;;;;;22.19;79.98;94870.34;5096488;28;949;-59
2023/08/03 05:09:48;;;;;;;;;;;;;;;22.24;79.84;94864.22;5096343;28;1045;-59
2023/08/03 05:12:15;;;;;;;;;;;;;;;22.28;78.46;94875.47;5096210;28;1057;-58
2023/08/03 05:14:40;;;;;;;;;;;;;;;22.39;78.77;94877.34;5096275;28;1075;-59
2023/08/03 05:17:06;;;;;;;;;;;;;;;22.50;78.15;94879.19;5096209;28;999;-59
2023/08/03 05:19:32;;;;;;;;;;;;;;;22.73;77.79;94888.34;5096021;28;1981;-58
2023/08/03 05:21:58;;;;;;;;;;;;;;;22.80;77.00;94884.41;5096268;28;976;-59
2023/08/03 05:24:25;;;;;;;;;;;;;;;22.77;77.46;94884.06;5096371;28;957;-59
2023/08/03 05:26:51;;;;;;;;;;;;;;;22.87;76.11;94883.44;5096226;28;1003;-59
2023/08/03 05:29:18;;;;;;;;;;;;;;;22.90;75.50;94882.94;5103982;28;1181;-59
2023/08/03 05:31:47;;;;;;;;;;;;;;;23.12;74.62;94881.19;5115927;28;1091;-59
2023/08/03 05:34:13;;;;;;;;;;;;;;;23.27;73.66;94882.53;5112646;28;1280;-59
2023/08/03 05:36:39;;;;;;;;;;;;;;;23.44;73.10;94886.06;5116208;27;1088;-59
2023/08/03 05:39:05;;;;;;;;;;;;;;;23.50;71.63;94885.06;5116342;28;1906;-59
2023/08/03 05:41:31;;;;;;;;;;;;;;;23.48;72.98;94883.69;5116199;27;1066;-60
2023/08/03 05:43:57;;;;;;;;;;;;;;;23.70;73.52;94886.50;5116528;28;985;-59
2023/08/03 05:46:23;;;;;;;;;;;;;;;23.73;73.48;94875.06;5115977;28;1044;-60
2023/08/03 05:48:52;;;;;;;;;;;;;;;23.74;72.84;94882.19;5116391;28;963;-59
2023/08/03 05:51:25;;;;;;;;;;;;;;;23.85;71.52;94877.72;5116334;28;1063;-59
2023/08/03 05:53:52;;;;;;;;;;;;;;;23.91;71.82;94883.00;5104598;27;2965;-60
2023/08/03 05:56:19;;;;;;;;;;;;;;;24.10;70.59;94880.00;5095551;28;1060;-60
2023/08/03 05:58:45;;;;;;;;;;;;;;;24.23;70.33;94879.63;5101677;28;1979;-60
2023/08/03 06:01:11;;;;;;;;;;;;;;;24.35;71.25;94877.56;5115967;28;1052;-60
2023/08/03 06:03:41;;;;;;;;;;;;;;;24.55;71.34;94889.88;5116048;28;973;-60
2023/08/03 06:06:09;;;;;;;;;;;;;;;24.68;70.17;94880.44;5115573;28;1027;-60
2023/08/03 06:08:35;;;;;;;;;;;;;;;24.88;69.03;94877.13;5115589;28;1083;-60
2023/08/03 06:11:03;;;;;;;;;;;;;;;24.93;69.22;94879.91;5115947;28;953;-60
2023/08/03 06:13:35;;;;;;;;;;;;;;;25.03;67.97;94882.75;5115429;28;1031;-60
2023/08/03 06:16:08;;;;;;;;;;;;;;;25.17;68.79;94874.94;5115220;28;1139;-60
2023/08/03 06:18:41;;;;;;;;;;;;;;;25.33;68.17;94884.97;5133751;27;1930;-60
2023/08/03 06:21:07;;;;;;;;;;;;;;;25.43;67.74;94883.41;5136117;27;968;-60
2023/08/03 06:23:33;;;;;;;;;;;;;;;25.52;67.60;94885.41;5136099;27;957;-60
2023/08/03 06:25:59;;;;;;;;;;;;;;;25.63;67.44;94880.84;5135491;27;1127;-60
2023/08/03 06:28:25;;;;;;;;;;;;;;;25.89;67.21;94876.34;5135434;27;1219;-60
2023/08/03 06:30:52;;;;;;;;;;;;;;;26.13;64.90;94880.63;5115197;28;1080;-61
2023/08/03 06:33:21;;;;;;;;;;;;;;;26.24;66.06;94876.88;5115110;28;1206;-60
2023/08/03 06:35:50;;;;;;;;;;;;;;;26.36;64.88;94869.25;5114522;28;1092;-61
2023/08/03 06:38:16;;;;;;;;;;;;;;;26.44;65.22;94879.69;5114880;28;1902;-59
2023/08/03 06:40:43;;;;;;;;;;;;;;;26.41;64.96;94879.41;5115253;28;979;-59
2023/08/03 06:43:09;;;;;;;;;;;;;;;26.58;64.70;94876.44;5114461;28;948;-60
2023/08/03 06:45:36;;;;;;;;;;;;;;;26.73;64.54;94882.03;5124113;27;2854;-59
2023/08/03 06:48:02;;;;;;;;;;;;;;;26.85;64.78;94879.06;5115212;28;1220;-60
2023/08/03 06:50:30;;;;;;;;;;;;;;;27.05;63.11;94887.34;5114692;28;1076;-60
2023/08/03 06:52:58;;;;;;;;;;;;;;;27.16;60.04;94887.34;5096681;28;1559;-59
2023/08/03 06:55:25;;;;;;;;;;;;;;;27.31;59.67;94887.38;5114725;28;1056;-60
2023/08/03 06:57:51;;;;;;;;;;;;;;;27.58;59.40;94881.63;5114931;28;1910;-60
2023/08/03 07:00:17;;;;;;;;;;;;;;;27.62;61.21;94887.38;5114464;28;1064;-60
2023/08/03 07:02:45;;;;;;;;;;;;;;;27.49;61.35;94880.56;5114638;28;1084;-60
2023/08/03 07:05:11;;;;;;;;;;;;;;;27.50;60.42;94881.38;5114530;28;1415;-60
2023/08/03 07:07:37;;;;;;;;;;;;;;;27.64;61.83;94882.44;5114130;28;965;-60
2023/08/03 07:10:03;;;;;;;;;;;;;;;27.70;59.30;94875.88;5132741;27;2900;-60
2023/08/03 07:12:29;;;;;;;;;;;;;;;27.64;59.63;94879.69;5134776;27;1055;-59
2023/08/03 07:14:55;;;;;;;;;;;;;;;27.86;58.87;94882.16;5133655;27;1113;-59
2023/08/03 07:17:22;;;;;;;;;;;;;;;28.12;57.63;94882.16;5114384;28;964;-59
2023/08/03 07:19:51;;;;;;;;;;;;;;;28.39;57.13;94887.31;5122724;27;3620;-60
2023/08/03 07:22:18;;;;;;;;;;;;;;;28.32;58.33;94860.09;5131808;27;2197;-58
2023/08/03 07:24:44;;;;;;;;;;;;;;;28.38;55.79;94872.75;5133336;27;3484;-59
2023/08/03 07:27:10;;;;;;;;;;;;;;;28.46;55.44;94868.59;5114308;27;1024;-59
2023/08/03 07:29:36;;;;;;;;;;;;;;;28.55;57.54;94869.69;5131109;27;2974;-59
2023/08/03 07:32:03;;;;;;;;;;;;;;;28.68;56.36;94867.41;5132009;27;1346;-59
2023/08/03 07:34:29;;;;;;;;;;;;;;;28.74;55.68;94866.28;5132822;27;2617;-59
2023/08/03 07:36:55;;;;;;;;;;;;;;;28.80;54.83;94862.41;5116757;27;1249;-59
2023/08/03 07:39:21;;;;;;;;;;;;;;;29.10;53.91;94861.41;5114127;28;1987;-59
2023/08/03 07:41:48;;;;;;;;;;;;;;;29.23;55.06;94864.66;5130757;27;3518;-60
2023/08/03 07:44:17;;;;;;;;;;;;;;;28.98;55.07;94861.75;5134138;27;1549;-60
2023/08/03 07:46:43;;;;;;;;;;;;;;;29.17;56.14;94870.19;5118138;27;2457;-59
2023/08/03 07:49:09;;;;;;;;;;;;;;;29.09;53.94;94861.69;5127376;27;2833;-59
2023/08/03 07:51:35;;;;;;;;;;;;;;;28.94;52.96;94859.84;5155279;27;1127;-60
2023/08/03 07:54:01;;;;;;;;;;;;;;;29.17;54.19;94858.38;5155049;27;1043;-60
2023/08/03 07:56:27;;;;;;;;;;;;;;;29.54;54.59;94863.31;5141821;27;1583;-59
2023/08/03 07:58:53;;;;;;;;;;;;;;;29.67;54.10;94864.59;5126504;28;1906;-60
2023/08/03 08:01:20;;;;;;;;;;;;;;;29.72;53.94;94856.28;5113605;28;1012;-60
2023/08/03 08:03:46;;;;;;;;;;;;;;;29.78;53.96;94855.16;5113484;28;1071;-60
2023/08/03 08:06:16;;;;;;;;;;;;;;;29.81;53.58;94851.00;5113299;28;1025;-60
2023/08/03 08:08:42;;;;;;;;;;;;;;;29.84;53.78;94853.19;5113649;28;1116;-59
2023/08/03 08:11:09;;;;;;;;;;;;;;;29.96;54.31;94844.53;5113904;28;992;-59
2023/08/03 08:13:35;;;;;;;;;;;;;;;30.06;51.97;94847.16;5095083;28;2467;-58
2023/08/03 08:16:01;;;;;;;;;;;;;;;30.26;52.72;94845.28;5125494;28;1091;-57
2023/08/03 08:18:28;;;;;;;;;;;;;;;30.44;51.82;94844.56;5113621;28;3402;-58
2023/08/03 08:20:57;;;;;;;;;;;;;;;30.41;52.91;94841.56;5112384;28;2451;-58
2023/08/03 08:23:23;;;;;;;;;;;;;;;30.38;51.26;94842.16;5114708;28;2931;-60
2023/08/03 08:25:50;;;;;;;;;;;;;;;30.43;51.67;94836.56;5127021;28;1076;-59
2023/08/03 08:28:16;;;;;;;;;;;;;;;30.59;51.38;94835.28;5113318;28;1102;-58
2023/08/03 08:30:42;;;;;;;;;;;;;;;30.74;51.30;94842.53;5094008;28;1165;-57
2023/08/03 08:33:08;;;;;;;;;;;;;;;30.89;51.24;94831.28;5093185;28;1076;-59
2023/08/03 08:35:34;;;;;;;;;;;;;;;30.99;49.41;94826.78;5092631;28;1195;-60
2023/08/03 08:38:00;;;;;;;;;;;;;;;30.96;48.73;94819.06;5093014;28;1993;-60
2023/08/03 08:40:29;;;;;;;;;;;;;;;31.13;49.53;94822.13;5092141;28;1037;-61
2023/08/03 08:42:55;;;;;;;;;;;;;;;31.37;48.40;94827.56;5092983;28;924;-61
2023/08/03 08:45:22;;;;;;;;;;;;;;;31.46;50.58;94817.50;5074572;28;1104;-62
2023/08/03 08:47:48;;;;;;;;;;;;;;;31.55;49.43;94819.56;5093155;28;974;-62
2023/08/03 08:50:14;;;;;;;;;;;;;;;31.42;46.61;94815.63;5110848;28;1145;-60
2023/08/03 08:52:44;;;;;;;;;;;;;;;31.46;48.86;94806.47;5106320;28;3430;-60
2023/08/03 08:55:13;;;;;;;;;;;;;;;31.55;47.44;94811.28;5112280;28;3127;-59
2023/08/03 08:57:39;;;;;;;;;;;;;;;31.62;48.93;94807.00;5096429;28;3620;-60
2023/08/03 09:00:06;;;;;;;;;;;;;;;31.65;49.45;94809.16;5130746;28;1218;-60
2023/08/03 09:02:32;;;;;;;;;;;;;;;31.54;48.85;94807.72;5133456;28;1027;-60
2023/08/03 09:05:28;;;;;;;;;;;;;;;31.64;50.34;94802.00;5140169;27;2643;-61
2023/08/03 09:08:02;;;;;;;;;;;;;;;31.51;47.94;94800.84;5120176;27;1322;-61
2023/08/03 09:10:28;;;;;;;;;;;;;;;31.66;48.77;94802.53;5118751;27;3561;-60
2023/08/03 09:12:54;;;;;;;;;;;;;;;31.78;47.96;94798.44;5137457;27;956;-59
2023/08/03 09:15:42;;;;;;;;;;;;;;;31.87;47.34;94793.84;5136910;27;1051;-60
2023/08/03 09:18:08;;;;;;;;;;;;;;;32.02;48.24;94790.00;5116242;27;2869;-60
2023/08/03 09:20:34;;;;;;;;;;;;;;;32.10;48.66;94781.03;5128758;27;2483;-60
2023/08/03 09:23:01;;;;;;;;;;;;;;;32.02;48.96;94784.50;5137064;27;1037;-60
2023/08/03 09:25:27;;;;;;;;;;;;;;;32.09;48.45;94779.38;5133305;27;1004;-60
2023/08/03 09:27:54;;;;;;;;;;;;;;;32.11;49.45;94771.59;5116224;28;1024;-60
2023/08/03 09:30:21;;;;;;;;;;;;;;;32.22;49.19;94774.97;5116494;28;1217;-61
2023/08/03 09:32:47;;;;;;;;;;;;;;;32.34;46.80;94766.97;5116295;28;1072;-62
2023/08/03 09:35:20;;;;;;;;;;;;;;;32.33;48.08;94773.66;5115943;28;1138;-61
2023/08/03 09:37:47;;;;;;;;;;;;;;;32.48;48.79;94770.56;5116102;28;1999;-60
2023/08/03 09:40:13;;;;;;;;;;;;;;;32.39;47.78;94761.34;5116080;28;1028;-59
2023/08/03 09:42:40;;;;;;;;;;;;;;;32.44;47.68;94765.94;5116196;28;1005;-62
2023/08/03 09:45:07;;;;;;;;;;;;;;;32.50;48.37;94759.19;5116372;28;1017;-60
2023/08/03 09:47:36;;;;;;;;;;;;;;;32.28;47.06;94763.50;5130030;27;2959;-61
2023/08/03 09:50:03;;;;;;;;;;;;;;;32.35;47.74;94752.03;5136712;27;1039;-61
2023/08/03 09:52:30;;;;;;;;;;;;;;;32.44;48.52;94750.19;5136395;27;1039;-61
2023/08/03 09:55:14;;;;;;;;;;;;;;;32.48;46.54;94753.16;5135856;27;1026;-60
2023/08/03 09:57:43;;;;;;;;;;;;;;;32.64;47.63;94750.88;5136880;27;1909;-60
2023/08/03 10:00:11;;;;;;;;;;;;;;;32.75;47.19;94755.06;5117745;27;1108;-60
2023/08/03 10:02:47;;;;;;;;;;;;;;;32.82;45.73;94751.84;5153364;27;2514;-61
2023/08/03 10:05:16;;;;;;;;;;;;;;;32.79;44.97;94747.75;5153622;27;1113;-58
2023/08/03 10:07:48;;;;;;;;;;;;;;;32.87;45.62;94743.44;5121287;27;1239;-58
2023/08/03 10:10:15;;;;;;;;;;;;;;;32.95;45.10;94736.31;5126044;27;2558;-58
2023/08/03 10:12:44;;;;;;;;;;;;;;;32.99;47.13;94724.34;5135765;27;1565;-58
2023/08/03 10:15:12;;;;;;;;;;;;;;;33.11;46.31;94728.53;5136300;27;1033;-57
2023/08/03 10:17:38;;;;;;;;;;;;;;;33.16;44.79;94726.44;5135470;27;1994;-57
2023/08/03 10:20:05;;;;;;;;;;;;;;;33.20;44.65;94724.69;5134655;27;2516;-57
2023/08/03 10:22:31;;;;;;;;;;;;;;;33.30;42.69;94725.56;5136240;27;1010;-58
2023/08/03 10:25:29;;;;;;;;;;;;;;;33.39;43.35;94727.25;5134958;27;2457;-58
2023/08/03 10:28:12;;;;;;;;;;;;;;;33.62;43.03;94725.25;5079795;27;1305;-58
2023/08/03 10:30:56;;;;;;;;;;;;;;;33.56;43.81;94715.44;5135674;27;1232;-59
2023/08/03 10:33:23;;;;;;;;;;;;;;;33.55;44.07;94711.03;5114643;27;1222;-59
2023/08/03 10:35:49;;;;;;;;;;;;;;;33.53;44.58;94709.72;5115427;28;1056;-58
2023/08/03 10:38:19;;;;;;;;;;;;;;;33.55;43.11;94710.22;5096916;28;1914;-58
2023/08/03 10:40:45;;;;;;;;;;;;;;;33.63;42.26;94698.34;5115072;28;1024;-59
2023/08/03 10:43:11;;;;;;;;;;;;;;;33.58;42.41;94704.84;5114621;28;1102;-59
2023/08/03 10:45:37;;;;;;;;;;;;;;;33.84;39.93;94705.00;5115232;28;1292;-59
2023/08/03 10:48:22;;;;;;;;;;;;;;;34.00;37.55;94710.94;5142527;27;2924;-59
2023/08/03 10:50:58;;;;;;;;;;;;;;;34.19;39.87;94702.38;5156079;27;1075;-58
2023/08/03 10:53:24;;;;;;;;;;;;;;;34.38;37.83;94690.19;5150420;27;1189;-58
2023/08/03 10:55:52;;;;;;;;;;;;;;;34.51;35.74;94707.81;5135604;27;1039;-58
2023/08/03 10:58:19;;;;;;;;;;;;;;;34.45;34.95;94707.16;5133954;27;2953;-57
2023/08/03 11:00:45;;;;;;;;;;;;;;;34.68;35.98;94701.50;5135276;27;1064;-59
2023/08/03 11:03:11;;;;;;;;;;;;;;;34.93;36.09;94709.03;5131847;27;1268;-59
2023/08/03 11:05:37;;;;;;;;;;;;;;;35.06;36.12;94698.91;5114853;28;950;-58
2023/08/03 11:08:03;;;;;;;;;;;;;;;35.05;37.91;94694.50;5096457;28;1075;-60
2023/08/03 11:10:30;;;;;;;;;;;;;;;35.11;35.47;94697.91;5114419;28;1120;-58
2023/08/03 11:12:56;;;;;;;;;;;;;;;35.11;35.45;94692.34;5114187;28;1372;-58
2023/08/03 11:15:22;;;;;;;;;;;;;;;35.03;34.83;94702.34;5114240;28;1164;-57
2023/08/03 11:17:49;;;;;;;;;;;;;;;35.02;35.01;94700.69;5114412;28;1992;-56
2023/08/03 11:20:15;;;;;;;;;;;;;;;34.84;35.12;94697.13;5114484;28;962;-56
2023/08/03 11:22:41;;;;;;;;;;;;;;;34.76;35.50;94690.41;5114224;28;1040;-57
2023/08/03 11:25:07;;;;;;;;;;;;;;;34.88;34.23;94691.72;5114249;28;1046;-56
2023/08/03 11:27:33;;;;;;;;;;;;;;;34.99;34.70;94696.63;5114189;28;1064;-56
2023/08/03 11:30:02;;;;;;;;;;;;;;;35.12;34.30;94691.22;5113888;28;1196;-57
2023/08/03 11:32:32;;;;;;;;;;;;;;;35.23;35.84;94684.22;5114195;28;1023;-56
2023/08/03 11:34:58;;;;;;;;;;;;;;;35.15;34.49;94685.00;5114085;28;1032;-56
2023/08/03 11:37:27;;;;;;;;;;;;;;;35.24;34.58;94679.47;5113890;28;1024;-56
2023/08/03 11:39:53;;;;;;;;;;;;;;;35.09;34.76;94676.00;5113885;28;1905;-57
2023/08/03 11:42:19;;;;;;;;;;;;;;;35.04;34.31;94683.69;5114207;28;1040;-56
2023/08/03 11:44:45;;;;;;;;;;;;;;;35.09;34.59;94684.34;5113704;28;1106;-56
2023/08/03 11:47:11;;;;;;;;;;;;;;;35.22;33.95;94676.22;5124952;27;3042;-58
2023/08/03 11:49:37;;;;;;;;;;;;;;;35.40;33.70;94677.78;5116214;27;1091;-59
2023/08/03 11:52:03;;;;;;;;;;;;;;;35.49;34.62;94686.91;5132945;27;2942;-59
2023/08/03 11:54:32;;;;;;;;;;;;;;;35.49;35.23;94678.56;5121843;27;1086;-60
2023/08/03 11:58:07;;;;;;;;;;;;;;;35.67;33.18;94686.88;5113961;28;1036;-61
2023/08/03 11:59:48;;;;;;;;;;;;;;;35.67;33.41;94684.91;5104491;28;2633;-59
2023/08/03 12:02:14;;;;;;;;;;;;;;;35.34;33.69;94682.69;5092902;28;966;-61
2023/08/03 12:04:41;;;;;;;;;;;;;;;35.28;32.11;94688.78;5092815;28;974;-61
2023/08/03 12:07:07;;;;;;;;;;;;;;;35.18;32.64;94687.16;5095649;28;2448;-61
2023/08/03 12:09:40;;;;;;;;;;;;;;;35.20;33.25;94679.31;5112996;28;1365;-62
2023/08/03 12:12:07;;;;;;;;;;;;;;;35.26;32.67;94682.72;5097122;28;2513;-59
2023/08/03 12:14:33;;;;;;;;;;;;;;;35.25;33.91;94683.84;5093105;28;1033;-59
2023/08/03 12:16:59;;;;;;;;;;;;;;;35.28;34.02;94674.88;5093220;28;1069;-59
2023/08/03 12:19:32;;;;;;;;;;;;;;;35.24;33.22;94688.59;5093245;28;1922;-59
2023/08/03 12:22:01;;;;;;;;;;;;;;;35.48;32.48;94688.06;5093276;28;1032;-59
2023/08/03 12:24:28;;;;;;;;;;;;;;;35.56;32.24;94695.56;5092998;28;999;-56
2023/08/03 12:26:54;;;;;;;;;;;;;;;35.63;31.65;94685.91;5099076;28;2568;-56
2023/08/03 12:30:55;;;;;;;;;;;;;;;35.65;31.97;94689.16;5116848;27;1308175;-56
2023/08/03 12:33:21;;;;;;;;;;;;;;;35.74;32.01;94676.91;5149289;27;1178;-58
2023/08/03 12:35:47;;;;;;;;;;;;;;;35.82;31.66;94682.75;5152629;27;933;-58
2023/08/03 12:38:13;;;;;;;;;;;;;;;35.79;30.84;94695.38;5132903;27;2463;-57
2023/08/03 12:40:39;;;;;;;;;;;;;;;35.76;30.55;94684.91;5152486;27;975;-58
2023/08/03 12:43:04;;;;;;;;;;;;;;;35.72;31.45;94684.78;5152125;27;1157;-57
2023/08/03 12:45:30;;;;;;;;;;;;;;;35.67;31.64;94679.34;5152336;27;1340;-57
2023/08/03 12:48:00;;;;;;;;;;;;;;;35.66;31.46;94680.50;5152291;27;2998;-58
2023/08/03 12:50:26;;;;;;;;;;;;;;;35.68;31.65;94694.09;5150630;27;2420;-57
2023/08/03 12:52:54;;;;;;;;;;;;;;;35.72;30.12;94690.34;5150831;27;2900;-57
2023/08/03 12:55:21;;;;;;;;;;;;;;;35.62;31.13;94695.41;5151520;27;1415;-57
2023/08/03 12:57:47;;;;;;;;;;;;;;;35.70;31.49;94686.22;5152095;27;979;-57